Time;durP1;ratioP1;P1;durP2;ratioP2;P2;SDS_P1;SDS_P2;PMS_P1;PMS_P2;Temp;Humidity;BMP_temperature;BMP_pressure;BME280_temperature;BME280_humidity;BME280_pressure;Samples;Min_cycle;Max_cycle;Signal;HPM_P1;HPM_P2
2022/11/23 00:01:35;;;;;;;3.70;2.13;;;4.90;99.90;;;;;;4961067;28;20030;-75
2022/11/23 00:04:03;;;;;;;6.05;2.25;;;4.80;99.90;;;;;;4946594;28;20490;-75
2022/11/23 00:06:29;;;;;;;6.20;2.25;;;4.80;99.90;;;;;;4946293;28;20047;-76
2022/11/23 00:08:56;;;;;;;7.13;2.17;;;4.80;99.90;;;;;;4930266;28;20564;-75
2022/11/23 00:11:23;;;;;;;8.25;2.40;;;4.80;99.90;;;;;;4961648;28;20050;-76
2022/11/23 00:13:49;;;;;;;6.28;2.05;;;4.80;99.90;;;;;;4960661;28;20061;-76
2022/11/23 00:16:17;;;;;;;4.78;2.17;;;4.80;99.90;;;;;;4941937;28;20047;-76
2022/11/23 00:18:43;;;;;;;5.43;2.65;;;4.80;99.90;;;;;;4954926;28;20169;-76
2022/11/23 00:21:10;;;;;;;5.15;2.63;;;4.80;99.90;;;;;;4961466;28;20556;-76
2022/11/23 00:23:36;;;;;;;6.63;2.67;;;4.70;99.90;;;;;;4949794;28;20174;-76
2022/11/23 00:26:03;;;;;;;4.72;2.45;;;4.80;99.90;;;;;;4960913;28;20269;-77
2022/11/23 00:28:29;;;;;;;7.45;2.58;;;4.80;99.90;;;;;;4958616;28;20063;-76
2022/11/23 00:30:55;;;;;;;4.50;2.85;;;4.80;99.90;;;;;;4959586;28;20023;-76
2022/11/23 00:33:20;;;;;;;6.97;3.00;;;4.70;99.90;;;;;;4961254;28;20034;-76
2022/11/23 00:35:46;;;;;;;6.38;3.05;;;4.60;99.90;;;;;;4962010;28;20572;-77
2022/11/23 00:38:11;;;;;;;5.78;3.65;;;4.60;99.90;;;;;;4959597;28;20053;-76
2022/11/23 00:40:37;;;;;;;4.95;2.40;;;4.60;99.90;;;;;;4951797;28;20062;-77
2022/11/23 00:43:03;;;;;;;4.82;2.60;;;4.60;99.90;;;;;;4961145;28;20532;-76
2022/11/23 00:45:28;;;;;;;5.18;2.60;;;4.80;99.90;;;;;;4961446;28;20465;-76
2022/11/23 00:47:54;;;;;;;5.72;2.70;;;4.90;99.90;;;;;;4960485;28;20105;-76
2022/11/23 00:50:19;;;;;;;5.32;2.45;;;5.00;99.90;;;;;;4957745;28;20049;-76
2022/11/23 00:52:45;;;;;;;6.22;3.05;;;5.10;99.90;;;;;;4961437;28;20056;-75
2022/11/23 00:55:11;;;;;;;5.63;3.28;;;5.20;99.90;;;;;;4960886;28;20132;-76
2022/11/23 00:57:36;;;;;;;7.95;3.42;;;5.10;99.90;;;;;;4946823;28;20535;-76
2022/11/23 01:00:03;;;;;;;5.90;3.10;;;5.20;99.90;;;;;;4958630;28;20470;-76
2022/11/23 01:02:29;;;;;;;4.72;3.13;;;5.20;99.90;;;;;;4957519;28;20514;-75
2022/11/23 01:04:54;;;;;;;6.63;3.53;;;5.20;99.90;;;;;;4942300;28;20082;-76
2022/11/23 01:07:20;;;;;;;7.22;3.55;;;5.10;99.90;;;;;;4956008;28;20058;-76
2022/11/23 01:09:46;;;;;;;7.65;3.25;;;5.10;99.90;;;;;;4960875;28;20093;-76
2022/11/23 01:12:11;;;;;;;5.85;3.90;;;5.10;99.90;;;;;;4961228;28;20061;-76
2022/11/23 01:14:37;;;;;;;6.25;3.90;;;5.10;99.90;;;;;;4955801;28;20031;-76
2022/11/23 01:17:02;;;;;;;8.13;3.83;;;5.30;99.90;;;;;;4953441;28;20177;-76
2022/11/23 01:19:29;;;;;;;6.47;4.00;;;5.40;99.90;;;;;;4961467;28;20038;-76
2022/11/23 01:21:54;;;;;;;8.68;4.35;;;5.40;99.90;;;;;;4962876;28;20621;-76
2022/11/23 01:24:22;;;;;;;6.63;3.65;;;5.50;99.90;;;;;;4964249;28;20026;-75
2022/11/23 01:26:52;;;;;;;6.00;4.25;;;5.60;99.90;;;;;;4959984;28;20039;-76
2022/11/23 01:29:18;;;;;;;9.05;4.80;;;5.60;99.90;;;;;;4952905;28;20453;-75
2022/11/23 01:31:43;;;;;;;10.20;4.72;;;5.60;99.90;;;;;;4959051;28;20039;-76
2022/11/23 01:34:11;;;;;;;7.40;4.53;;;5.60;99.90;;;;;;4961872;28;20520;-76
2022/11/23 01:36:37;;;;;;;9.52;4.50;;;5.70;99.90;;;;;;4963981;28;20096;-76
2022/11/23 01:39:03;;;;;;;10.07;4.43;;;5.70;99.90;;;;;;4961523;28;20498;-76
2022/11/23 01:41:32;;;;;;;7.35;3.75;;;5.80;99.90;;;;;;4962331;28;20035;-76
2022/11/23 01:43:58;;;;;;;7.50;4.35;;;5.90;99.90;;;;;;4962796;28;20073;-76
2022/11/23 01:46:24;;;;;;;10.30;4.63;;;6.00;99.90;;;;;;4962738;28;20091;-76
2022/11/23 01:49:04;;;;;;;10.48;4.53;;;6.00;99.90;;;;;;4956105;28;20363;-75
2022/11/23 01:51:36;;;;;;;13.02;5.60;;;6.00;99.90;;;;;;4950929;28;20034;-76
2022/11/23 01:54:12;;;;;;;12.18;4.50;;;6.00;99.90;;;;;;4961724;28;20043;-76
2022/11/23 01:56:45;;;;;;;8.38;4.55;;;6.00;99.90;;;;;;4961821;28;20469;-76
2022/11/23 01:59:15;;;;;;;5.70;3.92;;;5.80;99.90;;;;;;4961461;28;20073;-76
2022/11/23 02:01:41;;;;;;;9.55;3.88;;;5.70;99.90;;;;;;4962456;28;20077;-76
2022/11/23 02:04:12;;;;;;;3.72;3.03;;;5.50;99.90;;;;;;4951714;28;20235;-76
2022/11/23 02:06:39;;;;;;;4.75;2.72;;;5.40;99.90;;;;;;4956235;28;20038;-76
2022/11/23 02:09:06;;;;;;;6.15;3.20;;;5.30;99.90;;;;;;4960012;28;20046;-76
2022/11/23 02:11:32;;;;;;;12.05;3.90;;;5.20;99.90;;;;;;4962515;28;20034;-76
2022/11/23 02:13:59;;;;;;;7.43;4.05;;;5.00;99.90;;;;;;4961088;28;20035;-76
2022/11/23 02:16:25;;;;;;;7.78;4.30;;;4.80;99.90;;;;;;4956680;28;20042;-76
2022/11/23 02:18:52;;;;;;;10.23;4.55;;;4.80;99.90;;;;;;4961795;28;20037;-76
2022/11/23 02:21:17;;;;;;;8.57;4.50;;;4.90;99.90;;;;;;4962467;28;20038;-75
2022/11/23 02:23:55;;;;;;;10.77;4.35;;;5.00;99.90;;;;;;4960409;28;20374;-76
2022/11/23 02:26:25;;;;;;;6.57;3.83;;;5.00;99.90;;;;;;4960790;28;20109;-75
2022/11/23 02:29:15;;;;;;;6.47;3.72;;;5.10;99.90;;;;;;4956549;28;20031;-75
2022/11/23 02:31:40;;;;;;;7.15;3.58;;;5.20;99.90;;;;;;4962856;28;20468;-76
2022/11/23 02:34:06;;;;;;;7.22;3.80;;;5.20;99.90;;;;;;4944613;28;20031;-76
2022/11/23 02:36:37;;;;;;;7.25;3.80;;;5.00;99.90;;;;;;4942722;28;20446;-76
2022/11/23 02:39:10;;;;;;;7.15;4.10;;;4.90;99.90;;;;;;4955749;28;20102;-76
2022/11/23 02:41:50;;;;;;;4.30;3.33;;;4.80;99.90;;;;;;4961754;28;20446;-76
2022/11/23 02:44:34;;;;;;;6.80;3.28;;;4.70;99.90;;;;;;4961198;28;20117;-76
2022/11/23 02:47:00;;;;;;;7.43;4.05;;;4.70;99.90;;;;;;4962522;28;20041;-75
2022/11/23 02:49:26;;;;;;;10.55;4.13;;;4.70;99.90;;;;;;4948907;28;20039;-75
2022/11/23 02:51:51;;;;;;;9.52;4.28;;;4.70;99.90;;;;;;4944348;28;20035;-76
2022/11/23 02:54:17;;;;;;;8.57;4.25;;;4.80;99.90;;;;;;4961358;28;20035;-76
2022/11/23 02:56:43;;;;;;;6.22;3.78;;;4.90;99.90;;;;;;4957813;28;20035;-75
2022/11/23 02:59:08;;;;;;;6.22;4.15;;;5.00;99.90;;;;;;4960706;28;20095;-76
2022/11/23 03:01:34;;;;;;;9.20;4.28;;;5.10;99.90;;;;;;4946524;28;20045;-76
2022/11/23 03:03:59;;;;;;;6.35;4.05;;;5.10;99.90;;;;;;4955335;28;20042;-75
2022/11/23 03:06:25;;;;;;;6.82;3.72;;;5.10;99.90;;;;;;4955377;28;20039;-76
2022/11/23 03:08:51;;;;;;;7.65;4.28;;;5.10;99.90;;;;;;4952439;28;20031;-76
2022/11/23 03:11:16;;;;;;;8.30;4.32;;;5.00;99.90;;;;;;4951356;28;20027;-76
2022/11/23 03:13:42;;;;;;;6.07;3.80;;;5.00;99.90;;;;;;4955030;28;20423;-76
2022/11/23 03:16:08;;;;;;;6.40;3.30;;;4.90;99.90;;;;;;4948943;28;20267;-76
2022/11/23 03:18:34;;;;;;;9.05;4.10;;;4.90;99.90;;;;;;4960901;28;20035;-76
2022/11/23 03:21:03;;;;;;;7.85;3.80;;;4.80;99.90;;;;;;4962198;28;20027;-76
2022/11/23 03:23:29;;;;;;;12.07;3.72;;;4.80;99.90;;;;;;4961391;28;20034;-75
2022/11/23 03:25:56;;;;;;;8.68;4.55;;;4.80;99.90;;;;;;4946712;28;20039;-76
2022/11/23 03:28:22;;;;;;;10.93;4.32;;;4.90;99.90;;;;;;4955358;28;20027;-75
2022/11/23 03:30:47;;;;;;;8.68;4.30;;;5.10;99.90;;;;;;4954457;28;20541;-77
2022/11/23 03:33:13;;;;;;;13.85;4.50;;;5.20;99.90;;;;;;4949208;28;20039;-76
2022/11/23 03:35:38;;;;;;;13.15;5.65;;;5.30;99.90;;;;;;4962233;28;20031;-76
2022/11/23 03:38:04;;;;;;;8.18;4.35;;;5.40;99.90;;;;;;4958455;28;20085;-77
2022/11/23 03:40:30;;;;;;;10.88;4.43;;;5.30;99.90;;;;;;4967904;28;20058;-75
2022/11/23 03:42:55;;;;;;;5.93;3.92;;;5.30;99.90;;;;;;4967200;28;20049;-76
2022/11/23 03:45:21;;;;;;;10.05;4.35;;;5.30;99.90;;;;;;4967208;28;20545;-76
2022/11/23 03:47:46;;;;;;;8.23;3.50;;;5.20;99.90;;;;;;4958797;28;20035;-76
2022/11/23 03:50:12;;;;;;;6.57;3.70;;;5.20;99.90;;;;;;4951723;28;20105;-76
2022/11/23 03:52:37;;;;;;;8.18;3.53;;;5.10;99.90;;;;;;4964943;28;20061;-75
2022/11/23 03:55:04;;;;;;;9.80;3.70;;;5.10;99.90;;;;;;4966097;28;20321;-76
2022/11/23 03:57:29;;;;;;;7.55;3.28;;;5.10;99.90;;;;;;4965639;28;20097;-76
2022/11/23 03:59:55;;;;;;;6.35;2.58;;;5.20;99.90;;;;;;4965977;28;20042;-76
2022/11/23 04:02:20;;;;;;;8.73;2.55;;;5.20;99.90;;;;;;4950695;28;20110;-77
2022/11/23 04:04:46;;;;;;;5.07;2.20;;;5.30;99.90;;;;;;4958415;28;20035;-76
2022/11/23 04:07:12;;;;;;;8.70;2.65;;;5.30;99.90;;;;;;4953087;28;20030;-76
2022/11/23 04:09:37;;;;;;;9.90;2.83;;;5.40;99.90;;;;;;4964393;28;20050;-76
2022/11/23 04:12:03;;;;;;;11.38;2.45;;;5.50;99.90;;;;;;4946306;28;20042;-76
2022/11/23 04:14:29;;;;;;;8.55;2.00;;;5.60;99.90;;;;;;4944683;28;20491;-76
2022/11/23 04:16:55;;;;;;;17.38;2.70;;;5.70;99.90;;;;;;4921300;29;20055;-77
2022/11/23 04:19:20;;;;;;;7.53;1.75;;;5.90;99.90;;;;;;4962519;28;20023;-76
2022/11/23 04:21:46;;;;;;;12.63;2.15;;;6.00;99.90;;;;;;4949904;28;20027;-78
2022/11/23 04:24:11;;;;;;;14.05;2.83;;;6.00;99.90;;;;;;4965538;28;20157;-76
2022/11/23 04:26:39;;;;;;;15.63;2.85;;;6.10;99.90;;;;;;4949854;28;20121;-76
2022/11/23 04:29:04;;;;;;;12.57;2.38;;;6.20;99.90;;;;;;4953134;28;20014;-77
2022/11/23 04:31:30;;;;;;;18.60;2.22;;;6.30;99.90;;;;;;4965718;28;20339;-77
2022/11/23 04:33:56;;;;;;;19.40;3.35;;;6.20;99.90;;;;;;4964286;28;20154;-76
2022/11/23 04:36:21;;;;;;;13.20;2.33;;;6.30;99.90;;;;;;4964849;28;20174;-76
2022/11/23 04:38:47;;;;;;;12.05;1.95;;;6.30;99.90;;;;;;4955939;28;20023;-76
2022/11/23 04:41:13;;;;;;;17.13;1.40;;;6.50;99.90;;;;;;4965042;28;20570;-76
2022/11/23 04:43:38;;;;;;;13.25;1.83;;;6.70;99.90;;;;;;4964807;28;20023;-76
2022/11/23 04:46:04;;;;;;;15.90;1.77;;;6.80;99.90;;;;;;4965208;28;20045;-76
2022/11/23 04:48:30;;;;;;;11.10;1.80;;;6.90;99.90;;;;;;4963271;28;20031;-77
2022/11/23 04:50:56;;;;;;;19.33;2.10;;;7.00;99.90;;;;;;4955482;28;20278;-76
2022/11/23 04:53:22;;;;;;;14.18;1.77;;;7.10;99.90;;;;;;4964779;28;20072;-77
2022/11/23 04:55:48;;;;;;;12.48;1.85;;;7.50;99.90;;;;;;4959787;28;20034;-76
2022/11/23 04:58:13;;;;;;;16.88;2.17;;;7.80;99.90;;;;;;4949366;28;20530;-76
2022/11/23 05:00:39;;;;;;;10.82;1.50;;;8.00;99.90;;;;;;4964637;28;20479;-76
2022/11/23 05:03:04;;;;;;;6.68;1.23;;;8.20;99.90;;;;;;4950258;28;20038;-77
2022/11/23 05:05:30;;;;;;;13.40;1.95;;;8.40;99.90;;;;;;4945804;29;20123;-76
2022/11/23 05:07:56;;;;;;;19.75;2.30;;;8.50;99.90;;;;;;4959030;28;20058;-76
2022/11/23 05:10:22;;;;;;;16.77;1.35;;;8.50;99.90;;;;;;4946600;28;20030;-76
2022/11/23 05:12:47;;;;;;;12.80;1.75;;;9.00;99.90;;;;;;4964383;28;20030;-76
2022/11/23 05:15:13;;;;;;;11.45;2.05;;;9.10;99.90;;;;;;4956453;28;20042;-78
2022/11/23 05:17:39;;;;;;;17.77;1.73;;;9.20;99.90;;;;;;4962344;28;20047;-77
2022/11/23 05:20:06;;;;;;;13.35;1.25;;;9.30;99.90;;;;;;4965138;28;20053;-77
2022/11/23 05:22:32;;;;;;;9.70;0.98;;;9.40;99.60;;;;;;4964212;28;20031;-78
2022/11/23 05:24:58;;;;;;;16.20;2.15;;;9.60;98.70;;;;;;4964056;28;20457;-76
2022/11/23 05:27:23;;;;;;;17.38;1.95;;;9.60;99.00;;;;;;4963976;28;20548;-77
2022/11/23 05:29:49;;;;;;;12.25;2.13;;;9.70;99.00;;;;;;4957145;28;20031;-77
2022/11/23 05:32:14;;;;;;;17.83;1.50;;;9.70;99.60;;;;;;4963952;28;20038;-77
2022/11/23 05:34:40;;;;;;;9.55;1.35;;;9.70;99.80;;;;;;4946393;28;20159;-77
2022/11/23 05:37:06;;;;;;;12.23;1.27;;;9.70;99.90;;;;;;4963341;28;20446;-78
2022/11/23 05:39:31;;;;;;;13.88;1.70;;;9.80;99.90;;;;;;4931328;28;20027;-78
2022/11/23 05:41:57;;;;;;;6.13;1.38;;;9.90;99.90;;;;;;4945521;28;20035;-77
2022/11/23 05:44:22;;;;;;;9.10;1.30;;;10.00;99.90;;;;;;4945368;28;20121;-78
2022/11/23 05:46:48;;;;;;;7.97;1.40;;;10.00;99.90;;;;;;4954187;28;20096;-77
2022/11/23 05:49:13;;;;;;;12.80;1.98;;;10.10;99.50;;;;;;4951423;28;20565;-77
2022/11/23 05:51:39;;;;;;;10.32;1.30;;;10.10;99.90;;;;;;4960881;28;20035;-78
2022/11/23 05:54:05;;;;;;;8.00;1.33;;;10.00;99.90;;;;;;4963755;28;20035;-77
2022/11/23 05:56:31;;;;;;;7.55;1.20;;;10.00;99.90;;;;;;4963125;28;20205;-77
2022/11/23 05:58:56;;;;;;;6.80;1.13;;;10.10;99.90;;;;;;4963105;28;20141;-77
2022/11/23 06:01:22;;;;;;;7.63;1.33;;;10.00;99.90;;;;;;4944940;28;20485;-78
2022/11/23 06:03:50;;;;;;;13.02;1.48;;;10.00;99.90;;;;;;4955915;28;20037;-78
2022/11/23 06:06:16;;;;;;;13.98;1.98;;;10.00;99.90;;;;;;4960361;28;20026;-78
2022/11/23 06:08:42;;;;;;;11.50;2.03;;;10.00;99.90;;;;;;4962494;28;20180;-78
2022/11/23 06:11:07;;;;;;;9.90;1.80;;;10.10;99.90;;;;;;4964357;28;20622;-77
2022/11/23 06:13:33;;;;;;;7.25;1.23;;;10.10;99.90;;;;;;4946680;28;20498;-78
2022/11/23 06:16:00;;;;;;;9.80;1.27;;;10.10;99.90;;;;;;4953137;28;20075;-78
2022/11/23 06:18:26;;;;;;;11.65;1.83;;;10.10;99.90;;;;;;4962793;28;20050;-80
2022/11/23 06:20:51;;;;;;;13.25;1.63;;;10.10;99.90;;;;;;4957126;28;20443;-78
2022/11/23 06:23:17;;;;;;;6.60;1.60;;;10.20;99.90;;;;;;4934584;28;20146;-78
2022/11/23 06:25:43;;;;;;;17.00;2.08;;;10.20;99.90;;;;;;4962286;28;20122;-77
2022/11/23 06:28:08;;;;;;;15.15;1.70;;;10.30;99.90;;;;;;4958219;28;20098;-76
2022/11/23 06:30:34;;;;;;;11.18;1.60;;;10.30;99.90;;;;;;4944555;28;20031;-76
2022/11/23 06:33:03;;;;;;;11.35;1.50;;;10.30;99.90;;;;;;4950702;28;20390;-77
2022/11/23 06:35:29;;;;;;;13.55;1.60;;;10.30;99.90;;;;;;4961278;28;20030;-78
2022/11/23 06:37:54;;;;;;;8.10;1.13;;;10.20;99.90;;;;;;4959579;28;20639;-78
2022/11/23 06:40:20;;;;;;;9.23;1.33;;;10.20;99.90;;;;;;4961966;28;20034;-76
2022/11/23 06:42:47;;;;;;;9.77;1.10;;;10.30;99.90;;;;;;4951820;28;20038;-76
2022/11/23 06:45:13;;;;;;;15.52;1.90;;;10.30;99.90;;;;;;4963410;28;20030;-77
2022/11/23 06:47:39;;;;;;;6.72;1.50;;;10.30;99.90;;;;;;4959696;28;20034;-76
2022/11/23 06:50:05;;;;;;;17.63;1.80;;;10.30;99.90;;;;;;4944018;28;20102;-79
2022/11/23 06:52:31;;;;;;;12.40;1.42;;;10.40;99.90;;;;;;4944406;28;20485;-78
2022/11/23 06:54:56;;;;;;;7.88;1.08;;;10.30;99.90;;;;;;4951837;28;20109;-78
2022/11/23 06:57:22;;;;;;;12.05;1.30;;;10.30;99.90;;;;;;4962117;28;20438;-78
2022/11/23 06:59:48;;;;;;;13.75;1.40;;;10.20;99.90;;;;;;4963008;28;20107;-77
2022/11/23 07:02:13;;;;;;;9.10;1.58;;;10.20;99.90;;;;;;4962409;28;20038;-77
2022/11/23 07:04:39;;;;;;;8.50;1.35;;;10.20;99.90;;;;;;4948074;28;20038;-75
2022/11/23 07:07:07;;;;;;;18.33;1.73;;;10.20;99.90;;;;;;4959789;28;20474;-78
2022/11/23 07:09:33;;;;;;;19.52;2.13;;;10.10;99.90;;;;;;4962947;28;20162;-78
2022/11/23 07:11:58;;;;;;;9.60;1.70;;;10.10;99.90;;;;;;4960703;28;20138;-78
2022/11/23 07:14:24;;;;;;;18.50;2.15;;;10.10;99.90;;;;;;4963603;28;20077;-79
2022/11/23 07:16:50;;;;;;;13.77;1.92;;;10.10;99.90;;;;;;4949161;28;20046;-78
2022/11/23 07:19:15;;;;;;;19.58;2.30;;;10.10;99.90;;;;;;4961884;28;20061;-78
2022/11/23 07:21:41;;;;;;;16.90;1.92;;;10.10;99.90;;;;;;4963511;28;20058;-76
2022/11/23 07:24:06;;;;;;;14.77;1.85;;;10.20;99.90;;;;;;4945434;28;20023;-76
2022/11/23 07:26:32;;;;;;;14.52;1.83;;;10.20;99.90;;;;;;4961956;28;20384;-75
2022/11/23 07:28:57;;;;;;;18.63;2.20;;;10.20;99.90;;;;;;4960741;28;20035;-76
2022/11/23 07:31:23;;;;;;;26.75;2.58;;;10.20;99.90;;;;;;4957473;28;20459;-75
2022/11/23 07:33:49;;;;;;;16.38;1.92;;;10.10;99.90;;;;;;4947386;28;20037;-75
2022/11/23 07:36:15;;;;;;;12.75;1.95;;;10.10;99.90;;;;;;4956097;28;20035;-75
2022/11/23 07:38:41;;;;;;;18.13;1.85;;;10.10;99.90;;;;;;4961738;28;20035;-75
2022/11/23 07:41:06;;;;;;;17.67;2.35;;;10.10;99.90;;;;;;4960908;28;20027;-76
2022/11/23 07:43:32;;;;;;;14.43;2.00;;;10.10;99.90;;;;;;4956292;28;20106;-76
2022/11/23 07:45:57;;;;;;;12.93;2.10;;;10.10;99.90;;;;;;4954853;28;20030;-74
2022/11/23 07:48:23;;;;;;;13.40;2.25;;;10.10;99.90;;;;;;4962711;28;20037;-75
2022/11/23 07:50:53;;;;;;;19.08;2.15;;;10.10;99.90;;;;;;4957968;28;20516;-75
2022/11/23 07:53:19;;;;;;;17.40;1.65;;;10.10;99.90;;;;;;4959584;28;20041;-76
2022/11/23 07:55:45;;;;;;;16.85;2.10;;;10.10;99.90;;;;;;4960698;28;20027;-76
2022/11/23 07:58:11;;;;;;;12.07;2.33;;;10.10;99.90;;;;;;4960075;28;20055;-76
2022/11/23 08:00:37;;;;;;;14.55;2.65;;;10.10;99.90;;;;;;4961684;28;20031;-75
2022/11/23 08:03:02;;;;;;;12.68;1.85;;;10.10;99.90;;;;;;4955718;28;20525;-76
2022/11/23 08:05:31;;;;;;;10.50;1.90;;;10.10;99.90;;;;;;4950476;28;21047;-76
2022/11/23 08:08:00;;;;;;;22.95;2.53;;;10.10;99.90;;;;;;4954576;28;20034;-74
2022/11/23 08:10:28;;;;;;;16.15;2.40;;;10.20;99.90;;;;;;4958411;28;20343;-75
2022/11/23 08:12:59;;;;;;;15.18;2.33;;;10.20;99.90;;;;;;4947851;28;20038;-74
2022/11/23 08:15:29;;;;;;;13.98;2.70;;;10.20;99.90;;;;;;4953507;28;20058;-75
2022/11/23 08:17:59;;;;;;;19.40;2.67;;;10.20;99.90;;;;;;4962359;28;20113;-74
2022/11/23 08:20:27;;;;;;;23.10;2.90;;;10.20;99.90;;;;;;4962418;28;20525;-74
2022/11/23 08:22:54;;;;;;;14.88;3.17;;;10.30;99.90;;;;;;4939456;28;20095;-75
2022/11/23 08:25:24;;;;;;;18.92;2.67;;;10.30;99.90;;;;;;4953452;28;20063;-75
2022/11/23 08:27:57;;;;;;;19.90;2.45;;;10.40;99.90;;;;;;4957949;28;20026;-75
2022/11/23 08:30:26;;;;;;;26.05;2.50;;;10.40;99.90;;;;;;4955375;28;20025;-75
2022/11/23 08:32:51;;;;;;;23.92;2.28;;;10.40;99.90;;;;;;4955622;28;20026;-75
2022/11/23 08:35:17;;;;;;;19.85;2.05;;;10.50;99.90;;;;;;4956718;28;20073;-75
2022/11/23 08:37:42;;;;;;;16.10;2.47;;;10.50;99.90;;;;;;4957956;28;20031;-75
2022/11/23 08:40:09;;;;;;;23.35;2.35;;;10.60;99.90;;;;;;4957760;28;20027;-76
2022/11/23 08:42:34;;;;;;;14.93;3.00;;;10.60;99.90;;;;;;4946249;28;20290;-75
2022/11/23 08:45:02;;;;;;;16.92;1.95;;;10.70;99.90;;;;;;4950758;28;20114;-77
2022/11/23 08:47:27;;;;;;;20.05;2.20;;;10.80;99.90;;;;;;4958275;28;20019;-76
2022/11/23 08:49:53;;;;;;;20.58;1.80;;;10.80;99.90;;;;;;4951792;28;20049;-75
2022/11/23 08:52:19;;;;;;;12.05;1.25;;;10.90;99.90;;;;;;4954772;28;20057;-75
2022/11/23 08:54:44;;;;;;;15.57;2.22;;;10.90;99.90;;;;;;4961771;28;20687;-74
2022/11/23 08:57:10;;;;;;;12.07;1.55;;;10.90;99.90;;;;;;4960946;28;20136;-74
2022/11/23 08:59:35;;;;;;;10.40;1.30;;;10.90;99.90;;;;;;4963956;28;20050;-75
2022/11/23 09:02:01;;;;;;;16.23;1.85;;;11.00;99.90;;;;;;4956964;28;20497;-75
2022/11/23 09:04:28;;;;;;;10.27;1.30;;;11.00;99.90;;;;;;4947374;28;20033;-75
2022/11/23 09:06:53;;;;;;;11.13;1.13;;;11.00;99.90;;;;;;4948353;28;20035;-74
2022/11/23 09:09:19;;;;;;;12.18;1.02;;;11.00;99.90;;;;;;4953777;28;20031;-75
2022/11/23 09:11:45;;;;;;;13.45;1.88;;;11.10;99.90;;;;;;4961094;28;20057;-75
2022/11/23 09:14:10;;;;;;;9.13;1.00;;;11.10;99.90;;;;;;4960418;28;20489;-75
2022/11/23 09:16:36;;;;;;;14.07;1.92;;;11.10;99.90;;;;;;4963994;28;20038;-75
2022/11/23 09:19:01;;;;;;;20.35;1.30;;;11.10;99.90;;;;;;4950112;28;20125;-75
2022/11/23 09:21:32;;;;;;;24.30;1.60;;;11.10;99.90;;;;;;4964347;28;20057;-76
2022/11/23 09:23:58;;;;;;;18.58;2.10;;;11.00;99.90;;;;;;4963196;28;20106;-76
2022/11/23 09:26:24;;;;;;;20.00;1.92;;;11.00;99.90;;;;;;4955583;28;20185;-75
2022/11/23 09:28:49;;;;;;;28.60;2.20;;;11.00;99.90;;;;;;4963200;28;20023;-77
2022/11/23 09:31:15;;;;;;;23.08;2.10;;;11.00;99.90;;;;;;4960726;28;20135;-76
2022/11/23 09:33:41;;;;;;;20.35;2.08;;;11.00;99.90;;;;;;4962593;28;20057;-77
2022/11/23 09:36:07;;;;;;;15.00;2.53;;;11.00;99.90;;;;;;4962570;28;20218;-76
2022/11/23 09:38:33;;;;;;;33.35;14.50;;;10.90;99.90;;;;;;4963525;28;20486;-77
2022/11/23 09:41:37;;;;;;;17.98;1.80;;;10.90;99.90;;;;;;4962671;28;20038;-77
2022/11/23 09:44:44;;;;;;;13.65;1.50;;;10.80;99.90;;;;;;4964136;28;20390;-76
2022/11/23 09:47:47;;;;;;;14.93;1.67;;;10.80;99.90;;;;;;4961065;28;20125;-78
2022/11/23 09:50:28;;;;;;;14.95;1.75;;;10.70;99.90;;;;;;4965498;28;20463;-76
2022/11/23 09:52:54;;;;;;;9.00;1.35;;;10.70;99.90;;;;;;4966467;28;20039;-76
2022/11/23 09:55:43;;;;;;;14.52;1.92;;;10.70;99.90;;;;;;4953125;28;20038;-77
2022/11/23 09:58:15;;;;;;;13.93;1.80;;;10.70;99.90;;;;;;4944397;28;20054;-77
2022/11/23 10:00:43;;;;;;;;;;;10.80;99.90;;;;;;4943873;28;20525;-76
2022/11/23 10:03:14;;;;;;;15.55;1.35;;;11.00;99.90;;;;;;4952458;28;20780;-77
2022/11/23 10:06:01;;;;;;;13.43;2.20;;;11.10;99.90;;;;;;4930755;28;20028;-76
2022/11/23 10:08:39;;;;;;;17.35;1.92;;;11.30;99.90;;;;;;4951660;28;20042;-77
2022/11/23 10:11:39;;;;;;;17.45;1.48;;;11.40;99.90;;;;;;4959430;28;20049;-78
2022/11/23 10:14:30;;;;;;;13.38;1.20;;;11.40;99.90;;;;;;4963460;28;21056;-77
2022/11/23 10:17:17;;;;;;;12.10;1.55;;;11.40;99.90;;;;;;4953093;28;20050;-77
2022/11/23 10:19:51;;;;;;;6.82;1.35;;;11.50;99.90;;;;;;4951615;28;20544;-77
2022/11/23 10:22:26;;;;;;;10.38;1.42;;;11.50;99.90;;;;;;4958154;28;20030;-77
2022/11/23 10:24:52;;;;;;;7.90;1.30;;;12.10;99.90;;;;;;4957215;28;20031;-77
2022/11/23 10:27:23;;;;;;;11.25;1.35;;;13.10;99.90;;;;;;4958868;28;20030;-77
2022/11/23 10:29:51;;;;;;;6.53;1.20;;;13.80;99.90;;;;;;4950016;28;20046;-78
2022/11/23 10:32:28;;;;;;;7.25;1.05;;;14.10;99.90;;;;;;4949872;28;20372;-78
2022/11/23 10:35:13;;;;;;;7.20;1.25;;;14.20;97.80;;;;;;4962222;28;20038;-78
2022/11/23 10:37:40;;;;;;;12.88;1.55;;;14.10;97.70;;;;;;4970269;28;20079;-78
2022/11/23 10:40:22;;;;;;;7.10;1.00;;;14.10;95.40;;;;;;4960639;28;20081;-79
2022/11/23 10:42:59;;;;;;;7.50;1.00;;;14.10;95.10;;;;;;4960219;28;20398;-78
2022/11/23 10:45:26;;;;;;;4.85;0.85;;;14.30;95.20;;;;;;4952968;28;20046;-78
2022/11/23 10:47:54;;;;;;;6.95;0.90;;;14.60;95.80;;;;;;4945179;28;20113;-78
2022/11/23 10:50:39;;;;;;;8.00;1.00;;;15.10;93.30;;;;;;4952937;28;20497;-79
2022/11/23 10:53:05;;;;;;;9.05;1.02;;;15.50;86.90;;;;;;4960134;28;20041;-79
2022/11/23 10:55:56;;;;;;;4.13;0.70;;;15.50;86.30;;;;;;4934234;28;20027;-78
2022/11/23 10:58:24;;;;;;;;;;;15.40;87.80;;;;;;4945283;28;20387;-78
2022/11/23 11:00:59;;;;;;;8.65;0.93;;;15.70;86.30;;;;;;4954088;28;20369;-79
2022/11/23 11:03:25;;;;;;;4.22;0.90;;;16.10;79.50;;;;;;4954279;28;20050;-79
2022/11/23 11:05:50;;;;;;;7.50;1.10;;;16.30;76.50;;;;;;4955282;28;20030;-78
2022/11/23 11:08:19;;;;;;;8.18;1.15;;;17.10;73.40;;;;;;4947568;28;20828;-78
2022/11/23 11:10:48;;;;;;;4.32;0.90;;;17.40;68.30;;;;;;4952979;28;20031;-79
2022/11/23 11:13:29;;;;;;;10.48;1.23;;;17.00;70.20;;;;;;4945463;28;20490;-79
2022/11/23 11:15:59;;;;;;;10.48;1.55;;;16.70;69.50;;;;;;4958073;28;20086;-77
2022/11/23 11:18:27;;;;;;;6.82;1.23;;;15.90;70.40;;;;;;4960022;28;20072;-79
2022/11/23 11:21:06;;;;;;;6.78;1.00;;;15.50;73.80;;;;;;4958289;28;20299;-77
2022/11/23 11:23:33;;;;;;;6.63;1.42;;;15.30;76.50;;;;;;4960982;28;20115;-77
2022/11/23 11:26:34;;;;;;;7.72;1.55;;;15.10;74.80;;;;;;4949236;28;21591;-79
2022/11/23 11:29:03;;;;;;;8.65;1.25;;;14.90;75.40;;;;;;4949463;28;20861;-79
2022/11/23 11:31:52;;;;;;;7.55;1.23;;;14.90;79.00;;;;;;4956502;28;20823;-79
2022/11/23 11:34:25;;;;;;;7.85;1.30;;;15.00;78.60;;;;;;4948973;28;20027;-79
2022/11/23 11:37:06;;;;;;;8.38;1.67;;;15.30;79.00;;;;;;4960744;28;20134;-78
2022/11/23 11:39:40;;;;;;;10.30;1.85;;;15.50;78.90;;;;;;4957238;28;20023;-78
2022/11/23 11:42:13;;;;;;;7.80;1.40;;;15.50;74.20;;;;;;4951468;28;20103;-79
2022/11/23 11:44:40;;;;;;;10.55;1.67;;;15.40;73.40;;;;;;4954010;28;20037;-78
2022/11/23 11:47:25;;;;;;;8.75;1.48;;;15.80;76.20;;;;;;4957473;28;20042;-79
2022/11/23 11:49:55;;;;;;;8.90;1.60;;;16.10;74.10;;;;;;4959140;28;20489;-79
2022/11/23 11:52:26;;;;;;;9.73;1.40;;;16.10;70.80;;;;;;4952815;28;20042;-79
2022/11/23 11:55:01;;;;;;;15.68;1.60;;;16.00;72.70;;;;;;4957328;28;20273;-79
2022/11/23 11:57:33;;;;;;;12.73;1.60;;;16.10;72.80;;;;;;4963986;28;20236;-79
2022/11/23 12:00:01;;;;;;;9.95;1.80;;;16.00;74.80;;;;;;4967180;28;20054;-78
2022/11/23 12:02:41;;;;;;;7.00;1.30;;;15.90;72.80;;;;;;4966702;28;20057;-79
2022/11/23 12:05:11;;;;;;;16.05;2.42;;;16.10;72.80;;;;;;4964715;28;20038;-78
2022/11/23 12:08:01;;;;;;;9.35;1.50;;;16.00;70.10;;;;;;4957694;28;20019;-78
2022/11/23 12:10:52;;;;;;;11.60;1.55;;;15.80;73.20;;;;;;4958391;28;20030;-78
2022/11/23 12:13:28;;;;;;;11.82;1.60;;;16.00;75.80;;;;;;4955188;28;20046;-75
2022/11/23 12:16:16;;;;;;;13.05;2.00;;;15.90;74.40;;;;;;4935879;28;20070;-76
2022/11/23 12:19:15;;;;;;;12.48;1.70;;;15.90;73.20;;;;;;4948755;28;20041;-76
2022/11/23 12:22:17;;;;;;;7.57;1.45;;;15.90;70.60;;;;;;4949678;28;20146;-76
2022/11/23 12:24:48;;;;;;;11.48;1.70;;;16.00;73.80;;;;;;4957877;28;20505;-77
2022/11/23 12:27:32;;;;;;;;;;;16.10;73.90;;;;;;4963867;28;20417;-76
2022/11/23 12:30:24;;;;;;;15.38;1.70;;;16.00;74.10;;;;;;4961844;28;19914;-76
2022/11/23 12:33:05;;;;;;;17.40;1.90;;;16.00;74.40;;;;;;4948916;28;20041;-76
2022/11/23 12:36:03;;;;;;;8.50;1.55;;;16.00;72.50;;;;;;4960085;28;20109;-76
2022/11/23 12:38:55;;;;;;;15.38;1.83;;;15.90;72.30;;;;;;4940308;28;20405;-77
2022/11/23 12:41:41;;;;;;;10.95;1.83;;;15.80;75.60;;;;;;4957553;28;20039;-77
2022/11/23 12:44:27;;;;;;;12.18;2.33;;;16.00;73.90;;;;;;4956089;28;20038;-77
2022/11/23 12:47:28;;;;;;;14.20;1.83;;;16.00;75.40;;;;;;4952677;28;20045;-77
2022/11/23 12:50:20;;;;;;;16.33;1.80;;;15.90;70.90;;;;;;4952047;28;20039;-77
2022/11/23 12:53:05;;;;;;;8.60;1.60;;;15.90;73.60;;;;;;4948570;28;20042;-77
2022/11/23 12:55:49;;;;;;;16.23;1.90;;;16.00;72.90;;;;;;4955517;28;20038;-77
2022/11/23 12:58:30;;;;;;;15.57;2.22;;;15.80;71.50;;;;;;4952798;28;20569;-77
2022/11/23 13:01:04;;;;;;;20.45;2.45;;;15.70;75.10;;;;;;4954830;28;20037;-77